Time;durP1;ratioP1;P1;durP2;ratioP2;P2;SDS_P1;SDS_P2;PMS_P1;PMS_P2;Temp;Humidity;BMP_temperature;BMP_pressure;BME280_temperature;BME280_humidity;BME280_pressure;Samples;Min_cycle;Max_cycle;Signal;HPM_P1;HPM_P2
2021/09/25 00:01:54;;;;;;;;;;;;;;;19.10;42.93;99661.13;5033355;28;830;-57
2021/09/25 00:04:20;;;;;;;;;;;;;;;19.05;42.99;99659.69;5033573;28;850;-57
2021/09/25 00:06:47;;;;;;;;;;;;;;;19.06;42.83;99655.66;5033481;28;992;-57
2021/09/25 00:09:14;;;;;;;;;;;;;;;19.04;42.89;99649.75;5033183;28;1886;-56
2021/09/25 00:11:41;;;;;;;;;;;;;;;18.90;43.16;99641.94;5033064;28;890;-56
2021/09/25 00:14:09;;;;;;;;;;;;;;;18.81;43.13;99637.09;5032997;28;898;-56
2021/09/25 00:16:36;;;;;;;;;;;;;;;18.68;43.84;99633.63;5032860;28;1099;-56
2021/09/25 00:19:03;;;;;;;;;;;;;;;18.46;44.42;99633.72;5032755;28;1406;-56
2021/09/25 00:21:29;;;;;;;;;;;;;;;18.28;44.59;99651.19;5033006;28;830;-56
2021/09/25 00:23:56;;;;;;;;;;;;;;;18.11;45.03;99667.41;5032736;28;906;-56
2021/09/25 00:26:26;;;;;;;;;;;;;;;17.84;45.47;99662.44;5032910;28;811;-56
2021/09/25 00:28:54;;;;;;;;;;;;;;;17.24;46.08;99669.72;5032468;28;1969;-56
2021/09/25 00:31:23;;;;;;;;;;;;;;;16.65;47.93;99668.44;5032698;28;915;-56
2021/09/25 00:33:50;;;;;;;;;;;;;;;16.19;49.70;99665.84;5032741;28;863;-56
2021/09/25 00:36:17;;;;;;;;;;;;;;;15.80;50.87;99672.59;5032511;28;989;-56
2021/09/25 00:38:44;;;;;;;;;;;;;;;15.62;52.06;99665.47;5032565;28;839;-56
2021/09/25 00:41:11;;;;;;;;;;;;;;;15.68;51.90;99662.91;5032543;28;827;-56
2021/09/25 00:43:38;;;;;;;;;;;;;;;16.13;50.84;99676.78;5032576;28;811;-56
2021/09/25 00:46:05;;;;;;;;;;;;;;;16.17;50.35;99679.44;5014711;28;1185;-56
2021/09/25 00:48:32;;;;;;;;;;;;;;;15.95;50.40;99676.53;5032400;28;1882;-55
2021/09/25 00:50:59;;;;;;;;;;;;;;;15.78;50.92;99680.59;5032495;28;822;-56
2021/09/25 00:53:26;;;;;;;;;;;;;;;15.69;51.18;99684.78;5032321;28;914;-56
2021/09/25 00:55:54;;;;;;;;;;;;;;;15.53;51.39;99690.38;5014564;28;1820;-56
2021/09/25 00:58:21;;;;;;;;;;;;;;;15.31;51.98;99690.97;5032237;28;898;-56
2021/09/25 01:00:48;;;;;;;;;;;;;;;15.13;52.71;99689.84;5032283;28;803;-56
2021/09/25 01:03:15;;;;;;;;;;;;;;;14.93;53.17;99692.75;5032121;28;831;-56
2021/09/25 01:05:44;;;;;;;;;;;;;;;14.68;54.17;99688.56;5032146;28;810;-55
2021/09/25 01:08:12;;;;;;;;;;;;;;;14.44;55.19;99691.44;5031944;28;1947;-56
2021/09/25 01:10:40;;;;;;;;;;;;;;;14.36;55.62;99692.03;5032112;28;819;-56
2021/09/25 01:13:05;;;;;;;;;;;;;;;14.38;55.75;99684.03;5014335;28;1688;-56
2021/09/25 01:15:32;;;;;;;;;;;;;;;14.41;55.75;99700.66;5031920;28;899;-56
2021/09/25 01:17:59;;;;;;;;;;;;;;;14.36;55.79;99687.28;5031692;28;1367;-56
2021/09/25 01:20:26;;;;;;;;;;;;;;;14.29;56.23;99691.00;5031925;28;847;-56
2021/09/25 01:22:53;;;;;;;;;;;;;;;14.18;56.44;99693.22;5031732;28;1047;-56
2021/09/25 01:25:20;;;;;;;;;;;;;;;14.03;57.16;99691.94;5031896;28;905;-56
2021/09/25 01:27:47;;;;;;;;;;;;;;;13.87;58.02;99695.47;5031513;28;1965;-56
2021/09/25 01:30:15;;;;;;;;;;;;;;;13.76;58.18;99700.41;5031195;28;878;-56
2021/09/25 01:32:43;;;;;;;;;;;;;;;13.69;58.61;99691.00;5031616;28;819;-56
2021/09/25 01:35:10;;;;;;;;;;;;;;;13.80;58.34;99699.13;5031906;28;969;-56
2021/09/25 01:37:38;;;;;;;;;;;;;;;13.85;58.25;99704.22;5031559;28;946;-56
2021/09/25 01:40:06;;;;;;;;;;;;;;;13.84;58.45;99710.97;5031940;28;799;-56
2021/09/25 01:42:32;;;;;;;;;;;;;;;13.80;58.65;99715.03;5031852;28;846;-56
2021/09/25 01:45:00;;;;;;;;;;;;;;;13.92;58.47;99719.94;5031694;28;881;-56
2021/09/25 01:47:27;;;;;;;;;;;;;;;14.02;57.87;99727.28;5014239;28;1955;-56
2021/09/25 01:49:54;;;;;;;;;;;;;;;14.04;57.73;99724.88;5014035;28;913;-56
2021/09/25 01:52:22;;;;;;;;;;;;;;;13.92;58.28;99727.50;5031819;28;838;-56
2021/09/25 01:54:47;;;;;;;;;;;;;;;13.81;58.17;99736.81;5031663;28;865;-56
2021/09/25 01:57:14;;;;;;;;;;;;;;;13.80;58.31;99738.03;5031978;28;803;-56
2021/09/25 01:59:42;;;;;;;;;;;;;;;13.76;58.25;99747.63;5032014;28;811;-56
2021/09/25 02:02:09;;;;;;;;;;;;;;;13.88;57.97;99755.34;5031652;28;826;-56
2021/09/25 02:04:37;;;;;;;;;;;;;;;14.00;57.58;99753.94;5031678;28;822;-56
2021/09/25 02:07:05;;;;;;;;;;;;;;;14.06;57.34;99753.03;5031471;28;931;-56
2021/09/25 02:09:32;;;;;;;;;;;;;;;13.89;57.74;99760.50;5031347;28;855;-56
2021/09/25 02:11:59;;;;;;;;;;;;;;;13.79;58.65;99757.91;5031381;28;879;-56
2021/09/25 02:14:26;;;;;;;;;;;;;;;13.73;58.71;99762.38;5031297;28;934;-56
2021/09/25 02:16:53;;;;;;;;;;;;;;;13.58;59.25;99761.88;5013597;28;1643;-56
2021/09/25 02:19:20;;;;;;;;;;;;;;;13.47;59.63;99768.38;5031210;28;1264;-56
2021/09/25 02:21:47;;;;;;;;;;;;;;;13.39;60.17;99760.59;5031126;28;851;-56
2021/09/25 02:24:14;;;;;;;;;;;;;;;13.27;60.63;99771.06;5031317;28;811;-56
2021/09/25 02:26:42;;;;;;;;;;;;;;;13.17;61.21;99772.03;5013386;28;898;-56
2021/09/25 02:29:09;;;;;;;;;;;;;;;13.14;61.38;99774.84;5031129;28;1910;-55
2021/09/25 02:31:36;;;;;;;;;;;;;;;13.20;61.21;99778.72;5031168;28;867;-56
2021/09/25 02:34:04;;;;;;;;;;;;;;;13.18;61.22;99776.34;5031173;28;811;-56
2021/09/25 02:36:31;;;;;;;;;;;;;;;13.12;61.06;99782.81;5031002;28;918;-56
2021/09/25 02:38:58;;;;;;;;;;;;;;;13.05;61.42;99778.94;5031126;28;1095;-56
2021/09/25 02:41:25;;;;;;;;;;;;;;;12.94;61.94;99781.09;5034229;28;855;-56
2021/09/25 02:43:52;;;;;;;;;;;;;;;12.87;61.80;99784.00;5034746;28;894;-58
2021/09/25 02:46:17;;;;;;;;;;;;;;;12.83;62.23;99775.72;5034771;28;811;-58
2021/09/25 02:48:46;;;;;;;;;;;;;;;12.82;62.47;99776.13;5034655;28;1949;-58
2021/09/25 02:51:13;;;;;;;;;;;;;;;12.72;62.90;99788.16;5034626;28;1207;-58
2021/09/25 02:53:42;;;;;;;;;;;;;;;12.68;63.18;99792.97;5034590;28;897;-56
2021/09/25 02:56:11;;;;;;;;;;;;;;;12.65;63.57;99798.16;5034679;28;929;-55
2021/09/25 02:58:38;;;;;;;;;;;;;;;12.71;63.20;99798.47;5034575;28;902;-56
2021/09/25 03:01:05;;;;;;;;;;;;;;;12.76;63.20;99799.97;5034461;28;948;-58
2021/09/25 03:03:32;;;;;;;;;;;;;;;12.79;63.16;99801.94;5034458;28;866;-58
2021/09/25 03:05:59;;;;;;;;;;;;;;;12.85;63.24;99801.03;5034394;28;898;-58
2021/09/25 03:08:26;;;;;;;;;;;;;;;12.82;63.04;99801.09;5034267;28;1973;-58
2021/09/25 03:10:53;;;;;;;;;;;;;;;12.80;63.56;99814.59;5034183;28;926;-58
2021/09/25 03:13:20;;;;;;;;;;;;;;;12.86;63.41;99815.69;5034328;28;846;-58
2021/09/25 03:15:47;;;;;;;;;;;;;;;12.87;63.25;99815.28;5034181;28;978;-58
2021/09/25 03:18:14;;;;;;;;;;;;;;;12.86;63.13;99824.78;5033974;28;1308;-56
2021/09/25 03:20:41;;;;;;;;;;;;;;;12.92;62.93;99824.34;5034250;28;826;-55
2021/09/25 03:23:08;;;;;;;;;;;;;;;12.96;62.55;99831.41;5033938;28;1063;-58
2021/09/25 03:25:35;;;;;;;;;;;;;;;12.97;62.58;99833.00;5034032;28;827;-58
2021/09/25 03:28:00;;;;;;;;;;;;;;;12.97;62.74;99840.50;5033969;28;1976;-58
2021/09/25 03:30:27;;;;;;;;;;;;;;;13.00;62.70;99846.00;5033901;28;854;-58
2021/09/25 03:32:54;;;;;;;;;;;;;;;12.96;63.01;99850.03;5033913;28;800;-58
2021/09/25 03:35:22;;;;;;;;;;;;;;;12.94;62.81;99853.22;5033758;28;946;-58
2021/09/25 03:37:48;;;;;;;;;;;;;;;12.94;63.02;99858.78;5033845;28;854;-58
2021/09/25 03:40:16;;;;;;;;;;;;;;;12.98;62.82;99864.28;5033808;28;882;-58
2021/09/25 03:42:43;;;;;;;;;;;;;;;13.12;62.70;99868.84;5033596;28;1209;-58
2021/09/25 03:45:10;;;;;;;;;;;;;;;13.34;61.83;99874.91;5033602;28;952;-58
2021/09/25 03:47:37;;;;;;;;;;;;;;;13.46;61.47;99872.34;5033629;28;1941;-57
2021/09/25 03:50:04;;;;;;;;;;;;;;;13.52;61.21;99877.41;5033483;28;933;-58
2021/09/25 03:52:31;;;;;;;;;;;;;;;13.50;61.10;99877.03;5033153;28;893;-56
2021/09/25 03:54:58;;;;;;;;;;;;;;;13.45;61.27;99890.19;5015622;28;1173;-56
2021/09/25 03:57:25;;;;;;;;;;;;;;;13.38;61.51;99893.06;5033429;28;897;-56
2021/09/25 03:59:52;;;;;;;;;;;;;;;13.28;61.86;99892.00;5033567;28;847;-56
2021/09/25 04:02:19;;;;;;;;;;;;;;;13.21;62.09;99897.66;5033523;28;811;-56
2021/09/25 04:04:46;;;;;;;;;;;;;;;13.18;61.99;99895.69;5015603;28;1351;-55
2021/09/25 04:07:13;;;;;;;;;;;;;;;13.17;62.25;99905.25;5033171;28;1973;-58
2021/09/25 04:09:40;;;;;;;;;;;;;;;13.17;62.14;99910.00;5033233;28;858;-58
2021/09/25 04:12:07;;;;;;;;;;;;;;;13.15;62.19;99915.19;5033112;28;907;-58
2021/09/25 04:14:34;;;;;;;;;;;;;;;13.11;62.46;99912.44;5015374;28;1607;-58
2021/09/25 04:17:01;;;;;;;;;;;;;;;13.04;62.74;99918.09;5033361;28;936;-58
2021/09/25 04:19:28;;;;;;;;;;;;;;;12.97;63.14;99920.97;5032854;28;1284;-56
2021/09/25 04:21:55;;;;;;;;;;;;;;;12.97;63.15;99932.06;5032891;28;835;-56
2021/09/25 04:24:21;;;;;;;;;;;;;;;12.89;63.12;99936.91;5032748;28;928;-56
2021/09/25 04:26:49;;;;;;;;;;;;;;;12.74;63.48;99939.06;5032794;28;957;-56
2021/09/25 04:29:16;;;;;;;;;;;;;;;12.63;63.59;99938.41;5032761;28;1985;-55
2021/09/25 04:31:46;;;;;;;;;;;;;;;12.48;64.13;99948.06;5033043;28;870;-56
2021/09/25 04:34:15;;;;;;;;;;;;;;;12.38;64.66;99949.75;5032626;28;879;-56
2021/09/25 04:36:42;;;;;;;;;;;;;;;12.33;64.88;99952.97;5032721;28;886;-58
2021/09/25 04:39:09;;;;;;;;;;;;;;;12.38;65.53;99958.88;5032588;28;864;-58
2021/09/25 04:41:36;;;;;;;;;;;;;;;12.57;64.84;99957.47;5032814;28;886;-58
2021/09/25 04:44:04;;;;;;;;;;;;;;;12.63;64.89;99960.56;5032489;28;919;-58
2021/09/25 04:46:31;;;;;;;;;;;;;;;12.68;65.28;99965.69;5032436;28;824;-58
2021/09/25 04:48:58;;;;;;;;;;;;;;;12.79;64.75;99974.66;5032428;28;1947;-58
2021/09/25 04:51:25;;;;;;;;;;;;;;;12.94;64.53;99963.41;5032413;28;850;-58
2021/09/25 04:53:52;;;;;;;;;;;;;;;13.14;64.23;99977.44;5032412;28;878;-58
2021/09/25 04:56:19;;;;;;;;;;;;;;;13.33;63.67;99976.03;5032181;28;922;-58
2021/09/25 04:58:46;;;;;;;;;;;;;;;13.51;63.16;99984.13;5032260;28;912;-58
2021/09/25 05:01:11;;;;;;;;;;;;;;;13.66;63.21;99985.50;5032107;28;898;-59
2021/09/25 05:03:38;;;;;;;;;;;;;;;13.82;63.06;99982.06;5031551;28;882;-58
2021/09/25 05:06:04;;;;;;;;;;;;;;;14.02;62.78;99990.50;5032173;28;886;-58
2021/09/25 05:08:31;;;;;;;;;;;;;;;14.28;62.42;99989.66;5031979;28;1886;-56
2021/09/25 05:16:31;;;;;;;;;;;;;;;14.92;61.85;100002.88;6054218;22;1688;-61
2021/09/25 05:18:59;;;;;;;;;;;;;;;15.12;61.12;100009.19;5012378;28;928;-60
2021/09/25 05:21:25;;;;;;;;;;;;;;;15.38;60.30;100010.25;5012520;28;858;-60
2021/09/25 05:23:51;;;;;;;;;;;;;;;15.62;60.14;100012.91;5012534;28;771;-60
2021/09/25 05:26:19;;;;;;;;;;;;;;;15.85;59.21;100017.59;5012106;28;862;-60
2021/09/25 05:28:46;;;;;;;;;;;;;;;16.02;58.62;100021.97;5012043;28;1902;-60
2021/09/25 05:31:12;;;;;;;;;;;;;;;16.20;57.95;100020.78;5012077;28;815;-60
2021/09/25 05:33:40;;;;;;;;;;;;;;;16.37;57.33;100016.75;5012309;28;842;-60
2021/09/25 05:36:06;;;;;;;;;;;;;;;16.59;56.70;100014.19;5012267;28;791;-60
2021/09/25 05:38:33;;;;;;;;;;;;;;;16.85;56.23;100019.94;5011967;28;814;-60
2021/09/25 05:41:00;;;;;;;;;;;;;;;17.15;54.93;100021.47;5011884;28;858;-60
2021/09/25 05:43:27;;;;;;;;;;;;;;;17.41;53.49;100024.34;5011911;28;901;-60
2021/09/25 05:45:55;;;;;;;;;;;;;;;17.62;52.85;100023.69;5011752;28;783;-60
2021/09/25 05:48:23;;;;;;;;;;;;;;;17.90;52.48;100026.88;5012387;28;1878;-60
2021/09/25 05:50:50;;;;;;;;;;;;;;;18.20;52.10;100021.94;5012338;28;779;-60
2021/09/25 05:53:17;;;;;;;;;;;;;;;18.42;51.42;100031.19;5012031;28;823;-60
2021/09/25 05:55:44;;;;;;;;;;;;;;;18.60;50.70;100010.19;5012016;28;937;-60
2021/09/25 05:58:11;;;;;;;;;;;;;;;18.84;50.60;100018.97;5012031;28;815;-60
2021/09/25 06:00:39;;;;;;;;;;;;;;;19.03;50.05;100020.69;5012091;28;799;-60
2021/09/25 06:03:06;;;;;;;;;;;;;;;19.21;49.68;100020.06;4994273;28;1169;-60
2021/09/25 06:05:33;;;;;;;;;;;;;;;19.47;49.33;100025.50;5011925;28;807;-60
2021/09/25 06:08:02;;;;;;;;;;;;;;;19.78;48.71;100029.13;5011786;28;1951;-60
2021/09/25 06:10:29;;;;;;;;;;;;;;;20.26;47.62;100037.22;5011606;28;795;-60
2021/09/25 06:12:55;;;;;;;;;;;;;;;20.76;46.48;100035.16;5011681;28;851;-60
2021/09/25 06:15:22;;;;;;;;;;;;;;;21.04;45.20;100035.16;5013089;28;807;-60
2021/09/25 06:17:50;;;;;;;;;;;;;;;21.04;43.14;100035.16;5015552;28;1216;-60
2021/09/25 06:20:17;;;;;;;;;;;;;;;20.99;42.80;100041.38;5015627;28;807;-60
2021/09/25 06:22:45;;;;;;;;;;;;;;;20.95;42.88;100037.97;5015475;28;803;-60
2021/09/25 06:25:12;;;;;;;;;;;;;;;20.95;42.67;100037.97;5015314;28;796;-60
2021/09/25 06:27:39;;;;;;;;;;;;;;;20.86;42.67;100047.16;5015343;28;1960;-60
2021/09/25 06:30:06;;;;;;;;;;;;;;;20.75;43.12;100044.03;5015270;28;830;-60
2021/09/25 06:32:34;;;;;;;;;;;;;;;20.71;42.76;100047.00;5015213;28;991;-60
2021/09/25 06:35:02;;;;;;;;;;;;;;;20.67;42.37;100060.41;5015251;28;873;-60
2021/09/25 06:37:30;;;;;;;;;;;;;;;21.03;42.08;100063.72;5015181;28;850;-60
2021/09/25 06:39:57;;;;;;;;;;;;;;;21.31;41.42;100062.44;5015167;28;838;-60
2021/09/25 06:42:23;;;;;;;;;;;;;;;21.66;41.25;100061.31;5015074;28;866;-60
2021/09/25 06:44:50;;;;;;;;;;;;;;;21.75;40.66;100073.31;5015042;28;846;-60
2021/09/25 06:47:17;;;;;;;;;;;;;;;21.69;40.49;100075.22;5014855;28;1882;-60
2021/09/25 06:49:44;;;;;;;;;;;;;;;21.91;40.10;100082.63;5015013;28;787;-60
2021/09/25 06:52:11;;;;;;;;;;;;;;;22.17;39.79;100071.78;5014909;28;882;-60
2021/09/25 06:54:39;;;;;;;;;;;;;;;22.59;39.30;100077.31;5014897;28;827;-60
2021/09/25 06:57:06;;;;;;;;;;;;;;;23.07;38.33;100078.59;5014859;28;823;-60
2021/09/25 06:59:34;;;;;;;;;;;;;;;23.50;37.71;100074.28;5014783;28;799;-60
2021/09/25 07:02:01;;;;;;;;;;;;;;;23.51;36.74;100081.44;5014904;28;846;-61
2021/09/25 07:04:27;;;;;;;;;;;;;;;23.62;36.44;100092.94;4997068;28;1217;-61
2021/09/25 07:06:54;;;;;;;;;;;;;;;23.64;36.30;100098.09;5014703;28;799;-60
2021/09/25 07:09:21;;;;;;;;;;;;;;;23.57;36.97;100096.44;5014469;28;1894;-61
2021/09/25 07:11:48;;;;;;;;;;;;;;;23.64;36.97;100093.25;5014604;28;826;-61
2021/09/25 07:14:15;;;;;;;;;;;;;;;23.67;36.55;100097.13;5014393;28;829;-60
2021/09/25 07:16:44;;;;;;;;;;;;;;;23.64;37.00;100112.19;5014508;28;1352;-61
2021/09/25 07:19:11;;;;;;;;;;;;;;;23.70;36.45;100109.47;5014686;28;814;-60
2021/09/25 07:21:39;;;;;;;;;;;;;;;24.03;36.47;100110.09;5014346;28;818;-61
2021/09/25 07:24:06;;;;;;;;;;;;;;;24.71;35.64;100113.94;5014300;28;885;-61
2021/09/25 07:26:33;;;;;;;;;;;;;;;25.32;34.32;100118.81;4995798;28;1280;-61
2021/09/25 07:28:59;;;;;;;;;;;;;;;25.19;34.17;100121.97;4996532;28;1974;-61
2021/09/25 07:31:27;;;;;;;;;;;;;;;25.15;34.21;100117.81;5014435;28;854;-61
2021/09/25 07:33:54;;;;;;;;;;;;;;;24.99;34.80;100122.78;5014146;28;783;-61
2021/09/25 07:36:26;;;;;;;;;;;;;;;25.09;34.04;100131.09;5014103;28;862;-60
2021/09/25 07:38:54;;;;;;;;;;;;;;;25.15;34.08;100132.72;5013995;28;875;-60
2021/09/25 07:41:22;;;;;;;;;;;;;;;25.57;32.83;100136.31;5013965;28;787;-60
2021/09/25 07:43:49;;;;;;;;;;;;;;;25.84;33.11;100144.28;5013765;28;934;-61
2021/09/25 07:46:16;;;;;;;;;;;;;;;26.22;32.19;100148.00;5013941;28;803;-61
2021/09/25 07:48:43;;;;;;;;;;;;;;;26.17;32.09;100145.09;5013764;28;1951;-60
2021/09/25 07:51:10;;;;;;;;;;;;;;;26.45;31.79;100150.97;4996198;28;964;-61
2021/09/25 07:53:37;;;;;;;;;;;;;;;27.09;31.04;100152.38;5013916;28;787;-61
2021/09/25 07:56:03;;;;;;;;;;;;;;;27.33;30.57;100147.59;5013681;28;834;-61
2021/09/25 07:58:30;;;;;;;;;;;;;;;27.20;30.23;100150.88;5013637;28;838;-60
2021/09/25 08:00:58;;;;;;;;;;;;;;;26.79;30.88;100146.31;5013630;28;815;-60
2021/09/25 08:03:25;;;;;;;;;;;;;;;26.60;31.22;100151.59;5013618;28;862;-60
2021/09/25 08:05:52;;;;;;;;;;;;;;;26.62;31.32;100149.03;5013441;28;870;-61
2021/09/25 08:08:18;;;;;;;;;;;;;;;26.92;31.05;100154.34;5013625;28;1883;-61
2021/09/25 08:10:45;;;;;;;;;;;;;;;27.16;30.59;100150.34;4995892;28;799;-60
2021/09/25 08:13:11;;;;;;;;;;;;;;;27.20;30.10;100145.97;5013262;28;846;-60
2021/09/25 08:15:40;;;;;;;;;;;;;;;27.32;30.17;100152.50;5013369;28;1049;-61
2021/09/25 08:18:07;;;;;;;;;;;;;;;27.22;29.64;100148.31;5013086;28;1245;-61
2021/09/25 08:20:35;;;;;;;;;;;;;;;26.96;30.33;100151.28;5013237;28;854;-60
2021/09/25 08:23:01;;;;;;;;;;;;;;;26.94;30.31;100143.28;5013381;28;838;-61
2021/09/25 08:25:28;;;;;;;;;;;;;;;26.84;30.97;100137.06;5013183;28;843;-61
2021/09/25 08:27:56;;;;;;;;;;;;;;;26.77;30.47;100143.19;5013014;28;1942;-60
2021/09/25 08:30:25;;;;;;;;;;;;;;;26.77;30.71;100146.03;5013107;28;799;-61
2021/09/25 08:32:52;;;;;;;;;;;;;;;26.87;30.92;100143.78;5013295;28;886;-61
2021/09/25 08:35:21;;;;;;;;;;;;;;;27.11;30.69;100139.75;5013417;28;851;-61
2021/09/25 08:37:48;;;;;;;;;;;;;;;26.78;31.04;100150.44;5013016;28;823;-61
2021/09/25 08:40:19;;;;;;;;;;;;;;;26.55;31.02;100146.66;5013280;28;795;-61
2021/09/25 08:42:46;;;;;;;;;;;;;;;26.54;31.68;100147.94;4995202;28;1288;-61
2021/09/25 08:45:13;;;;;;;;;;;;;;;26.75;31.31;100150.66;5012680;28;843;-61
2021/09/25 08:47:39;;;;;;;;;;;;;;;26.84;30.84;100153.28;5012673;28;1941;-61
2021/09/25 08:50:08;;;;;;;;;;;;;;;26.73;30.46;100148.31;5012630;28;867;-61
2021/09/25 08:52:36;;;;;;;;;;;;;;;26.63;30.95;100158.34;5012620;28;846;-60
2021/09/25 08:55:03;;;;;;;;;;;;;;;26.75;30.51;100156.34;5012869;28;818;-61
2021/09/25 08:57:29;;;;;;;;;;;;;;;26.85;31.14;100152.78;5012562;28;804;-61
2021/09/25 08:59:56;;;;;;;;;;;;;;;27.23;30.79;100155.56;5012472;28;855;-61
2021/09/25 09:02:23;;;;;;;;;;;;;;;27.38;29.81;100158.19;5012702;28;865;-61
2021/09/25 09:04:53;;;;;;;;;;;;;;;27.14;30.17;100164.25;5012536;28;913;-61
2021/09/25 09:07:21;;;;;;;;;;;;;;;26.88;30.79;100163.13;5012376;28;1947;-61
2021/09/25 09:09:48;;;;;;;;;;;;;;;26.12;31.81;100166.44;5012242;28;811;-61
2021/09/25 09:12:25;;;;;;;;;;;;;;;25.71;32.54;100172.22;4994955;28;1233;-61
2021/09/25 09:14:53;;;;;;;;;;;;;;;25.80;32.90;100165.63;5012434;28;1229;-60
2021/09/25 09:17:23;;;;;;;;;;;;;;;26.03;32.06;100161.75;5012583;28;1338;-60
2021/09/25 09:19:51;;;;;;;;;;;;;;;25.84;32.38;100166.94;5012347;28;906;-61
2021/09/25 09:22:19;;;;;;;;;;;;;;;25.97;32.29;100162.97;5012389;28;860;-61
2021/09/25 09:24:50;;;;;;;;;;;;;;;26.23;31.45;100158.03;4994744;28;1470;-61
2021/09/25 09:27:21;;;;;;;;;;;;;;;26.22;31.81;100156.50;5012182;28;937;-61
2021/09/25 09:29:48;;;;;;;;;;;;;;;26.23;31.72;100165.75;5012402;28;819;-61
2021/09/25 09:32:17;;;;;;;;;;;;;;;26.45;31.41;100156.63;5012369;28;885;-61
2021/09/25 09:34:44;;;;;;;;;;;;;;;26.75;31.49;100154.28;5012207;28;913;-61
2021/09/25 09:37:13;;;;;;;;;;;;;;;26.94;30.71;100165.19;4994472;28;1327;-61
2021/09/25 09:39:39;;;;;;;;;;;;;;;27.02;30.44;100157.78;5012084;28;893;-61
2021/09/25 09:42:06;;;;;;;;;;;;;;;27.13;30.40;100162.72;5012076;28;788;-61
2021/09/25 09:44:33;;;;;;;;;;;;;;;26.37;30.91;100164.84;5012015;28;945;-61
2021/09/25 09:47:04;;;;;;;;;;;;;;;25.46;32.63;100165.25;5011978;28;803;-60
2021/09/25 09:49:34;;;;;;;;;;;;;;;24.85;33.95;100166.00;5011506;28;1890;-60
2021/09/25 09:52:03;;;;;;;;;;;;;;;25.16;33.64;100165.41;5012041;28;872;-60
2021/09/25 09:54:32;;;;;;;;;;;;;;;25.22;33.47;100165.47;5012039;28;839;-60
2021/09/25 09:57:02;;;;;;;;;;;;;;;25.55;32.73;100162.25;5011901;28;865;-60
2021/09/25 09:59:30;;;;;;;;;;;;;;;26.34;31.99;100168.66;5011837;28;841;-61
2021/09/25 10:01:57;;;;;;;;;;;;;;;27.23;30.22;100162.00;5011826;28;867;-61
2021/09/25 10:04:25;;;;;;;;;;;;;;;27.24;30.00;100165.63;5012226;28;859;-60
2021/09/25 10:06:52;;;;;;;;;;;;;;;27.29;30.40;100164.88;5011792;28;874;-60
2021/09/25 10:09:23;;;;;;;;;;;;;;;27.19;30.07;100160.69;5011657;28;1894;-60
2021/09/25 10:11:53;;;;;;;;;;;;;;;26.91;31.00;100164.16;5011615;28;839;-60
2021/09/25 10:14:29;;;;;;;;;;;;;;;27.06;30.06;100152.63;5011708;28;784;-61
2021/09/25 10:16:55;;;;;;;;;;;;;;;26.82;29.97;100153.00;5011547;28;1406;-60
2021/09/25 10:19:26;;;;;;;;;;;;;;;26.92;29.74;100151.53;5011941;28;863;-61
2021/09/25 10:21:55;;;;;;;;;;;;;;;26.82;30.52;100156.66;5011609;28;819;-61
2021/09/25 10:24:27;;;;;;;;;;;;;;;26.99;29.90;100153.91;4994109;28;1287;-61
2021/09/25 10:26:54;;;;;;;;;;;;;;;27.00;30.07;100157.50;5011678;28;866;-61
2021/09/25 10:29:24;;;;;;;;;;;;;;;26.80;30.79;100156.38;5011527;28;1918;-61
2021/09/25 10:32:11;;;;;;;;;;;;;;;26.68;30.23;100154.75;5011523;28;811;-61
2021/09/25 10:34:39;;;;;;;;;;;;;;;26.27;30.51;100141.56;4945405;28;1202;-60
2021/09/25 10:37:16;;;;;;;;;;;;;;;26.54;29.93;100136.59;4993691;28;870;-60
2021/09/25 10:39:53;;;;;;;;;;;;;;;26.97;29.90;100142.28;5011403;28;815;-61
2021/09/25 10:42:21;;;;;;;;;;;;;;;27.18;29.38;100142.09;5011254;28;799;-61
2021/09/25 10:44:49;;;;;;;;;;;;;;;27.33;29.16;100144.75;5011593;28;819;-61
2021/09/25 10:47:17;;;;;;;;;;;;;;;27.33;29.33;100137.00;5011748;28;851;-61
2021/09/25 10:50:01;;;;;;;;;;;;;;;27.51;29.01;100138.63;5011526;28;1941;-61
2021/09/25 10:53:04;;;;;;;;;;;;;;;27.96;28.18;100138.69;5011325;28;886;-61
2021/09/25 10:55:31;;;;;;;;;;;;;;;28.06;28.15;100139.22;4912719;29;1108;-61
2021/09/25 10:58:15;;;;;;;;;;;;;;;27.97;27.75;100126.03;4912784;29;928;-61
2021/09/25 11:01:02;;;;;;;;;;;;;;;27.37;28.52;100133.94;4912721;29;859;-61
2021/09/25 11:03:46;;;;;;;;;;;;;;;26.31;30.51;100134.88;4899561;29;1336;-61
2021/09/25 11:06:15;;;;;;;;;;;;;;;25.92;31.20;100126.88;4900286;29;1279;-61
2021/09/25 11:08:54;;;;;;;;;;;;;;;26.51;30.33;100134.78;4916031;29;1944;-61
2021/09/25 11:11:33;;;;;;;;;;;;;;;27.36;28.91;100133.16;4916136;29;847;-61
2021/09/25 11:14:03;;;;;;;;;;;;;;;28.00;27.71;100130.69;4915890;29;887;-61
2021/09/25 11:17:02;;;;;;;;;;;;;;;28.35;27.15;100122.91;4915927;29;1080;-61
2021/09/25 11:19:30;;;;;;;;;;;;;;;27.85;28.23;100125.25;4905822;29;1253;-61
2021/09/25 11:22:01;;;;;;;;;;;;;;;27.68;28.12;100124.44;4916022;29;1063;-61
2021/09/25 11:24:32;;;;;;;;;;;;;;;28.13;28.54;100121.66;4915765;29;851;-61
2021/09/25 11:26:59;;;;;;;;;;;;;;;28.48;26.66;100115.41;4915408;29;910;-61
2021/09/25 11:29:25;;;;;;;;;;;;;;;28.55;26.57;100119.81;4947596;28;1907;-62
2021/09/25 11:32:01;;;;;;;;;;;;;;;28.07;27.62;100129.38;5014121;28;826;-61
2021/09/25 11:34:29;;;;;;;;;;;;;;;27.90;28.51;100133.00;5014129;28;921;-61
2021/09/25 11:36:57;;;;;;;;;;;;;;;27.13;28.93;100126.59;5013936;28;803;-61
2021/09/25 11:39:34;;;;;;;;;;;;;;;27.11;29.19;100128.41;5013973;28;858;-61
2021/09/25 11:42:27;;;;;;;;;;;;;;;26.60;30.75;100117.59;5014234;28;883;-61
2021/09/25 11:44:56;;;;;;;;;;;;;;;26.13;33.54;100114.16;5010075;28;905;-61
2021/09/25 11:47:28;;;;;;;;;;;;;;;26.92;32.84;100111.06;5013935;28;868;-61
2021/09/25 11:49:56;;;;;;;;;;;;;;;28.03;32.12;100111.84;5013890;28;1161;-61
2021/09/25 11:52:22;;;;;;;;;;;;;;;28.33;30.89;100116.97;5014214;28;902;-62
2021/09/25 11:54:49;;;;;;;;;;;;;;;27.98;31.42;100116.22;5014113;28;855;-61
2021/09/25 11:57:22;;;;;;;;;;;;;;;27.64;31.48;100118.25;5013781;28;1302;-61
2021/09/25 11:59:50;;;;;;;;;;;;;;;27.85;32.61;100122.41;4996066;28;1205;-61
2021/09/25 12:02:37;;;;;;;;;;;;;;;28.50;31.05;100109.97;5013550;28;890;-61
2021/09/25 12:05:08;;;;;;;;;;;;;;;29.05;29.93;100107.47;5013701;28;843;-62
2021/09/25 12:07:45;;;;;;;;;;;;;;;28.96;30.17;100107.75;4996036;28;1985;-62
2021/09/25 12:10:37;;;;;;;;;;;;;;;28.63;30.58;100106.56;5013621;28;807;-62
2021/09/25 12:13:12;;;;;;;;;;;;;;;28.88;29.88;100113.22;4975951;28;1209;-62
2021/09/25 12:15:41;;;;;;;;;;;;;;;28.75;30.15;100100.88;5013470;28;1179;-61
2021/09/25 12:18:16;;;;;;;;;;;;;;;28.62;30.30;100110.72;5013129;28;1906;-62
2021/09/25 12:20:44;;;;;;;;;;;;;;;28.18;31.80;100109.50;5013449;28;1212;-61
2021/09/25 12:23:14;;;;;;;;;;;;;;;27.36;33.40;100121.81;4996131;28;897;-61
2021/09/25 12:25:42;;;;;;;;;;;;;;;27.25;33.87;100128.22;5013273;28;838;-62
2021/09/25 12:28:29;;;;;;;;;;;;;;;27.64;33.47;100130.38;5013185;28;811;-61
2021/09/25 12:30:57;;;;;;;;;;;;;;;27.94;33.33;100123.47;5013142;28;855;-62
2021/09/25 12:33:23;;;;;;;;;;;;;;;27.90;33.17;100135.84;5013113;28;850;-62
2021/09/25 12:35:59;;;;;;;;;;;;;;;27.39;34.42;100134.97;5012984;28;850;-62
2021/09/25 12:38:30;;;;;;;;;;;;;;;27.01;35.68;100130.69;4995336;28;1894;-62
2021/09/25 12:41:01;;;;;;;;;;;;;;;26.26;36.88;100131.50;5012776;28;796;-62
2021/09/25 12:43:32;;;;;;;;;;;;;;;26.54;36.01;100138.66;4995607;28;1008;-62
2021/09/25 12:46:31;;;;;;;;;;;;;;;26.90;35.27;100131.41;5012988;28;794;-62
2021/09/25 12:49:03;;;;;;;;;;;;;;;27.04;34.31;100135.34;4959267;28;1322;-62
2021/09/25 12:51:39;;;;;;;;;;;;;;;27.68;33.41;100125.22;5012884;28;877;-61
2021/09/25 12:54:12;;;;;;;;;;;;;;;28.20;34.08;100132.47;5012684;28;791;-62
2021/09/25 12:56:45;;;;;;;;;;;;;;;27.89;34.60;100136.38;5012711;28;818;-62
2021/09/25 12:59:13;;;;;;;;;;;;;;;27.38;35.29;100135.50;5012532;28;1886;-62
2021/09/25 13:01:42;;;;;;;;;;;;;;;27.27;35.76;100122.81;5012827;28;885;-62
2021/09/25 13:04:22;;;;;;;;;;;;;;;27.56;35.55;100125.72;5012747;28;803;-62
2021/09/25 13:06:50;;;;;;;;;;;;;;;28.07;34.75;100126.56;4994913;28;834;-62
2021/09/25 13:09:17;;;;;;;;;;;;;;;27.86;34.13;100135.31;5012288;28;895;-62
2021/09/25 13:12:03;;;;;;;;;;;;;;;27.85;34.04;100130.94;5012363;28;795;-61